createdAt,value
2023-03-06T00:02:41.181Z,11.15
2023-03-06T00:05:42.856Z,9.95
2023-03-06T00:08:44.538Z,10.70
2023-03-06T00:11:46.127Z,10.53
2023-03-06T00:14:47.749Z,10.13
2023-03-06T00:17:49.402Z,11.95
2023-03-06T00:20:50.971Z,10.18
2023-03-06T00:23:52.590Z,10.27
2023-03-06T00:26:54.194Z,10.70
2023-03-06T00:29:56.612Z,9.73
2023-03-06T00:32:58.230Z,13.73
2023-03-06T00:35:59.827Z,12.47
2023-03-06T00:39:05.806Z,10.95
2023-03-06T00:42:10.313Z,12.15
2023-03-06T00:45:12.057Z,9.73
2023-03-06T00:48:13.671Z,11.10
2023-03-06T00:51:16.622Z,12.88
2023-03-06T00:54:21.615Z,14.90
2023-03-06T00:57:26.356Z,13.90
2023-03-06T01:00:27.953Z,12.18
2023-03-06T01:03:29.642Z,13.20
2023-03-06T01:06:31.297Z,13.00
2023-03-06T01:09:35.689Z,12.17
2023-03-06T01:12:40.286Z,15.40
2023-03-06T01:15:41.913Z,10.45
2023-03-06T01:18:43.537Z,13.02
2023-03-06T01:21:45.157Z,12.20
2023-03-06T01:24:46.723Z,12.40
2023-03-06T01:27:51.672Z,13.30
2023-03-06T01:30:56.281Z,12.30
2023-03-06T01:33:57.876Z,12.80
2023-03-06T01:36:59.512Z,13.65
2023-03-06T01:40:04.728Z,13.27
2023-03-06T01:43:24.735Z,12.90
2023-03-06T01:46:29.343Z,10.80
2023-03-06T01:49:34.078Z,13.15
2023-03-06T01:52:38.185Z,10.20
2023-03-06T01:55:44.093Z,12.00
2023-03-06T01:58:46.277Z,12.32
2023-03-06T02:01:48.160Z,11.80
2023-03-06T02:04:49.821Z,11.97
2023-03-06T02:07:52.725Z,10.25
2023-03-06T02:11:19.604Z,13.02
2023-03-06T02:14:24.426Z,12.98
2023-03-06T02:17:29.914Z,13.47
2023-03-06T02:20:46.713Z,13.43
2023-03-06T02:24:16.085Z,20.90
2023-03-06T02:27:17.811Z,29.20
2023-03-06T02:30:19.426Z,29.05
2023-03-06T02:33:23.245Z,22.70
2023-03-06T02:36:24.839Z,22.48
2023-03-06T02:39:31.015Z,15.93
2023-03-06T02:42:35.633Z,14.60
2023-03-06T02:45:39.049Z,11.82
2023-03-06T02:48:40.670Z,13.27
2023-03-06T02:51:42.340Z,10.50
2023-03-06T02:54:43.924Z,14.23
2023-03-06T02:57:48.760Z,18.73
2023-03-06T03:00:50.465Z,15.87
2023-03-06T03:03:52.101Z,16.25
2023-03-06T03:06:53.726Z,13.73
2023-03-06T03:09:55.343Z,15.80
2023-03-06T03:13:01.950Z,17.87
2023-03-06T03:16:05.540Z,19.35
2023-03-06T03:19:11.204Z,19.17
2023-03-06T03:22:12.981Z,15.18
2023-03-06T03:25:14.580Z,10.37
2023-03-06T03:28:19.608Z,13.43
2023-03-06T03:31:25.206Z,12.57
2023-03-06T03:34:26.933Z,12.83
2023-03-06T03:37:28.543Z,12.38
2023-03-06T03:40:30.169Z,12.68
2023-03-06T03:43:34.602Z,11.95
2023-03-06T03:46:40.162Z,12.07
2023-03-06T03:49:41.754Z,13.27
2023-03-06T03:52:43.457Z,14.23
2023-03-06T03:55:47.285Z,13.57
2023-03-06T03:58:53.178Z,13.53
2023-03-06T04:01:59.645Z,11.82
2023-03-06T04:05:01.345Z,18.65
2023-03-06T04:08:03.338Z,23.38
2023-03-06T04:11:08.989Z,29.58
2023-03-06T04:14:10.599Z,26.75
2023-03-06T04:17:12.209Z,21.27
2023-03-06T04:20:14.613Z,17.30
2023-03-06T04:23:16.280Z,18.33
2023-03-06T04:26:22.106Z,14.80
2023-03-06T04:29:26.712Z,15.75
2023-03-06T04:32:28.421Z,13.23
2023-03-06T04:35:30.156Z,15.10
2023-03-06T04:38:31.801Z,15.20
2023-03-06T04:41:33.736Z,12.57
2023-03-06T04:44:38.983Z,14.23
2023-03-06T04:47:40.591Z,11.20
2023-03-06T04:50:42.262Z,14.43
2023-03-06T04:53:43.878Z,13.13
2023-03-06T04:56:45.496Z,15.67
2023-03-06T04:59:51.259Z,13.52
2023-03-06T05:02:52.929Z,13.88
2023-03-06T05:05:54.510Z,14.70
2023-03-06T05:08:56.162Z,18.13
2023-03-06T05:11:57.744Z,16.77
2023-03-06T05:15:02.592Z,17.85
2023-03-06T05:18:08.109Z,14.87
2023-03-06T05:21:09.770Z,17.92
2023-03-06T05:24:11.378Z,21.80
2023-03-06T05:27:17.001Z,24.05
2023-03-06T05:30:18.770Z,24.43
2023-03-06T05:33:23.978Z,24.10
2023-03-06T05:36:25.685Z,20.27
2023-03-06T05:39:30.508Z,18.25
2023-03-06T05:42:36.040Z,19.13
2023-03-06T05:45:41.608Z,19.48
2023-03-06T05:48:44.165Z,20.10
2023-03-06T05:51:46.389Z,20.75
2023-03-06T05:54:50.626Z,16.57
2023-03-06T05:57:52.283Z,19.42
2023-03-06T06:00:53.964Z,23.45
2023-03-06T06:03:55.624Z,20.33
2023-03-06T06:06:59.158Z,24.07
2023-03-06T06:10:03.475Z,27.33
2023-03-06T06:13:05.425Z,25.38
2023-03-06T06:16:11.680Z,30.40
2023-03-06T06:19:18.713Z,27.47
2023-03-06T06:22:20.425Z,33.88
2023-03-06T06:25:22.735Z,29.48
2023-03-06T06:28:24.352Z,30.23
2023-03-06T06:31:26.216Z,24.37
2023-03-06T06:34:28.145Z,22.42
2023-03-06T06:37:30.253Z,19.73
2023-03-06T06:40:31.852Z,19.92
2023-03-06T06:43:33.459Z,19.67
2023-03-06T06:49:57.438Z,17.30
2023-03-06T06:52:59.221Z,20.50
2023-03-06T06:56:00.946Z,19.00
2023-03-06T06:59:15.767Z,14.45
2023-03-06T07:02:18.763Z,14.63
2023-03-06T07:05:21.798Z,16.25
2023-03-06T07:08:23.821Z,17.10
2023-03-06T07:11:25.492Z,17.35
2023-03-06T07:14:27.370Z,18.88
2023-03-06T07:17:29.188Z,16.55
2023-03-06T07:20:31.969Z,14.02
2023-03-06T07:23:33.609Z,17.40
2023-03-06T07:26:35.298Z,15.88
2023-03-06T07:29:36.962Z,19.00
2023-03-06T07:32:38.705Z,15.43
2023-03-06T07:35:43.929Z,17.92
2023-03-06T07:38:45.837Z,15.07
2023-03-06T07:41:47.569Z,17.47
2023-03-06T07:44:49.242Z,16.45
2023-03-06T07:47:51.376Z,17.77
2023-03-06T07:51:00.602Z,18.65
2023-03-06T07:54:02.328Z,16.13
2023-03-06T07:57:03.995Z,18.13
2023-03-06T08:00:06.808Z,18.90
2023-03-06T08:03:10.433Z,19.95
2023-03-06T08:06:17.064Z,18.77
2023-03-06T08:09:18.993Z,18.60
2023-03-06T08:12:20.572Z,16.83
2023-03-06T08:15:22.207Z,17.60
2023-03-06T08:18:23.880Z,17.50
2023-03-06T08:21:26.707Z,15.00
2023-03-06T08:24:28.433Z,17.30
2023-03-06T08:27:31.966Z,19.55
2023-03-06T08:30:33.624Z,22.37
2023-03-06T08:33:35.836Z,19.40
2023-03-06T08:36:37.499Z,16.70
2023-03-06T08:39:39.157Z,20.48
2023-03-06T08:42:40.928Z,23.08
2023-03-06T08:45:42.565Z,18.93
2023-03-06T08:48:44.695Z,18.85
2023-03-06T08:51:46.329Z,16.25
2023-03-06T08:54:47.955Z,13.80
2023-03-06T08:57:49.622Z,16.97
2023-03-06T09:00:52.098Z,19.40
2023-03-06T09:03:54.823Z,16.92
2023-03-06T09:06:56.503Z,15.00
2023-03-06T09:09:58.571Z,16.38
2023-03-06T09:13:00.881Z,17.43
2023-03-06T09:16:06.404Z,17.90
2023-03-06T09:19:08.171Z,15.15
2023-03-06T09:22:10.057Z,14.98
2023-03-06T09:25:13.482Z,16.25
2023-03-06T09:28:15.116Z,16.43
2023-03-06T09:31:22.213Z,16.25
2023-03-06T09:34:23.896Z,17.52
2023-03-06T09:37:25.596Z,18.88
2023-03-06T09:40:50.061Z,17.15
2023-03-06T09:43:54.286Z,17.60
2023-03-06T09:47:23.895Z,16.88
2023-03-06T09:50:25.659Z,18.05
2023-03-06T09:53:45.510Z,16.98
2023-03-06T09:56:48.722Z,14.40
2023-03-06T09:59:53.479Z,20.40
2023-03-06T10:03:10.586Z,17.10
2023-03-06T10:06:18.469Z,16.38
2023-03-06T10:09:32.344Z,17.70
2023-03-06T10:12:39.203Z,16.70
2023-03-06T10:15:41.552Z,17.17
2023-03-06T10:18:43.286Z,19.40
2023-03-06T10:22:20.927Z,19.33
2023-03-06T10:25:31.077Z,16.75
2023-03-06T10:28:57.805Z,15.95
2023-03-06T10:32:30.540Z,18.77
2023-03-06T10:35:48.622Z,16.63
2023-03-06T10:38:50.440Z,17.50
2023-03-06T10:41:52.034Z,16.75
2023-03-06T10:45:14.783Z,17.87
2023-03-06T10:48:20.042Z,17.93
2023-03-06T10:51:23.219Z,17.80
2023-03-06T10:54:25.078Z,18.33
2023-03-06T10:57:31.047Z,17.00
2023-03-06T11:00:36.111Z,15.83
2023-03-06T11:03:37.967Z,16.40
2023-03-06T11:06:39.956Z,18.35
2023-03-06T11:09:58.518Z,16.52
2023-03-06T11:13:07.711Z,19.20
2023-03-06T11:16:25.524Z,18.53
2023-03-06T11:19:28.979Z,17.90
2023-03-06T11:22:30.636Z,17.35
2023-03-06T11:25:41.442Z,18.67
2023-03-06T11:28:47.152Z,18.35
2023-03-06T11:32:15.334Z,16.43
2023-03-06T11:35:27.580Z,21.17
2023-03-06T11:38:50.926Z,20.73
2023-03-06T11:42:17.437Z,21.92
2023-03-06T11:45:25.632Z,18.73
2023-03-06T11:48:31.915Z,20.93
2023-03-06T11:51:35.473Z,20.33
2023-03-06T11:54:37.228Z,19.33
2023-03-06T11:58:08.264Z,20.73
2023-03-06T12:01:12.969Z,21.15
2023-03-06T12:04:38.474Z,18.27
2023-03-06T12:08:16.913Z,19.87
2023-03-06T12:11:30.689Z,23.60
2023-03-06T12:14:53.075Z,34.53
2023-03-06T12:18:04.598Z,26.77
2023-03-06T12:21:28.018Z,21.87
2023-03-06T12:24:42.846Z,25.27
2023-03-06T12:28:15.356Z,23.73
2023-03-06T12:31:26.055Z,20.77
2023-03-06T12:34:58.732Z,21.23
2023-03-06T12:38:19.212Z,28.90
2023-03-06T12:41:39.774Z,21.87
2023-03-06T12:45:03.162Z,21.70
2023-03-06T12:48:15.427Z,20.60
2023-03-06T12:51:18.154Z,30.15
2023-03-06T12:54:21.584Z,24.23
2023-03-06T12:57:23.932Z,24.63
2023-03-06T13:00:58.747Z,23.77
2023-03-06T13:04:35.732Z,23.33
2023-03-06T13:07:52.847Z,26.52
2023-03-06T13:11:16.480Z,26.47
2023-03-06T13:14:53.871Z,25.43
2023-03-06T13:17:56.893Z,24.80
2023-03-06T13:20:58.629Z,32.90
2023-03-06T13:24:14.317Z,43.55
2023-03-06T13:27:16.058Z,34.30
2023-03-06T13:30:36.511Z,29.17
2023-03-06T13:33:38.281Z,28.33
2023-03-06T13:36:40.022Z,35.55
2023-03-06T13:40:10.764Z,41.45
2023-03-06T13:43:15.361Z,24.60
2023-03-06T13:46:25.920Z,39.17
2023-03-06T13:49:27.771Z,42.35
2023-03-06T13:52:40.028Z,28.20
2023-03-06T13:56:01.876Z,29.27
2023-03-06T13:59:27.998Z,22.53
2023-03-06T14:02:54.880Z,21.13
2023-03-06T14:05:56.982Z,23.75
2023-03-06T14:08:58.592Z,22.02
2023-03-06T14:12:07.248Z,47.70
2023-03-06T14:15:32.233Z,42.93
2023-03-06T14:18:46.264Z,43.30
2023-03-06T14:21:49.776Z,55.30
2023-03-06T14:25:00.849Z,41.75
2023-03-06T14:28:13.648Z,30.17
2023-03-06T14:31:25.744Z,30.07
2023-03-06T14:34:36.393Z,27.77
2023-03-06T14:37:38.109Z,23.95
2023-03-06T14:40:43.838Z,22.88
2023-03-06T14:43:45.457Z,23.08
2023-03-06T14:47:11.561Z,25.10
2023-03-06T14:50:21.837Z,48.40
2023-03-06T14:53:30.584Z,38.83
2023-03-06T14:56:32.186Z,30.13
2023-03-06T14:59:55.926Z,22.35
2023-03-06T15:02:57.986Z,22.83
2023-03-06T15:05:59.762Z,21.83
2023-03-06T15:09:07.635Z,25.05
2023-03-06T15:12:18.594Z,23.10
2023-03-06T15:15:29.653Z,22.55
2023-03-06T15:18:38.885Z,23.60
2023-03-06T15:21:43.473Z,22.17
2023-03-06T15:24:45.072Z,23.02
2023-03-06T15:27:50.534Z,21.33
2023-03-06T15:31:10.862Z,27.25
2023-03-06T15:34:12.525Z,24.73
2023-03-06T15:37:30.871Z,24.60
2023-03-06T15:40:33.033Z,26.52
2023-03-06T15:43:37.009Z,26.52
2023-03-06T15:46:38.713Z,25.42
2023-03-06T15:49:40.576Z,28.03
2023-03-06T15:52:46.785Z,26.27
2023-03-06T15:55:48.798Z,26.77
2023-03-06T15:58:50.408Z,26.95
2023-03-06T16:01:52.030Z,25.25
2023-03-06T16:04:53.852Z,28.70
2023-03-06T16:07:55.822Z,27.57
2023-03-06T16:10:57.437Z,27.00
2023-03-06T16:14:00.314Z,28.25
2023-03-06T16:17:02.090Z,28.42
2023-03-06T16:20:04.021Z,31.43
2023-03-06T16:23:09.989Z,28.70
2023-03-06T16:26:31.785Z,39.03
2023-03-06T16:29:33.606Z,59.90
2023-03-06T16:32:35.362Z,80.88
2023-03-06T16:35:37.104Z,73.10
2023-03-06T16:38:42.379Z,76.15
2023-03-06T16:41:45.897Z,63.33
2023-03-06T16:44:47.583Z,74.43
2023-03-06T16:47:49.288Z,89.10
2023-03-06T16:50:51.006Z,78.67
2023-03-06T16:53:55.594Z,45.63
2023-03-06T16:56:57.308Z,34.13
2023-03-06T16:59:58.922Z,30.13
2023-03-06T17:03:02.975Z,23.63
2023-03-06T17:06:04.934Z,26.63
2023-03-06T17:09:10.516Z,32.35
2023-03-06T17:12:12.173Z,30.58
2023-03-06T17:15:13.768Z,34.17
2023-03-06T17:18:15.442Z,30.20
2023-03-06T17:21:17.116Z,29.67
2023-03-06T17:24:22.817Z,28.90
2023-03-06T17:27:27.381Z,27.13
2023-03-06T17:30:32.009Z,20.58
2023-03-06T17:33:33.670Z,24.40
2023-03-06T17:36:35.322Z,23.05
2023-03-06T17:39:40.485Z,24.45
2023-03-06T17:42:42.048Z,24.67
2023-03-06T17:45:47.913Z,22.97
2023-03-06T17:48:49.486Z,26.08
2023-03-06T17:51:56.517Z,27.42
2023-03-06T17:55:01.767Z,25.85
2023-03-06T17:58:06.367Z,23.37
2023-03-06T18:01:15.461Z,22.83
2023-03-06T18:04:17.285Z,25.98
2023-03-06T18:07:18.872Z,25.02
2023-03-06T18:10:24.843Z,24.87
2023-03-06T18:13:29.422Z,25.20
2023-03-06T18:16:31.305Z,25.02
2023-03-06T18:19:33.007Z,24.15
2023-03-06T18:22:34.813Z,22.03
2023-03-06T18:25:40.666Z,28.55
2023-03-06T18:28:48.924Z,23.88
2023-03-06T18:31:50.700Z,24.25
2023-03-06T18:34:52.482Z,24.27
2023-03-06T18:37:54.106Z,22.77
2023-03-06T18:40:59.234Z,22.70
2023-03-06T18:44:05.684Z,25.17
2023-03-06T18:47:10.317Z,22.63
2023-03-06T18:50:16.541Z,27.88
2023-03-06T18:53:18.680Z,28.73
2023-03-06T18:56:24.127Z,29.85
2023-03-06T18:59:26.062Z,27.47
2023-03-06T19:02:30.653Z,32.17
2023-03-06T19:05:32.361Z,33.97
2023-03-06T19:08:34.362Z,33.10
2023-03-06T19:11:35.986Z,33.10
2023-03-06T19:14:41.940Z,34.22
2023-03-06T19:17:46.556Z,32.03
2023-03-06T19:20:51.207Z,29.70
2023-03-06T19:23:52.867Z,34.55
2023-03-06T19:26:57.711Z,29.80
2023-03-06T19:30:02.295Z,35.92
2023-03-06T19:33:03.948Z,32.17
2023-03-06T19:36:06.596Z,35.23
2023-03-06T19:39:09.119Z,35.42
2023-03-06T19:42:12.881Z,35.13
2023-03-06T19:45:19.994Z,36.03
2023-03-06T19:48:24.587Z,38.60
2023-03-06T19:51:31.000Z,37.30
2023-03-06T19:54:32.874Z,37.05
2023-03-06T19:57:37.536Z,38.17
2023-03-06T20:00:43.059Z,36.80
2023-03-06T20:03:44.758Z,40.78
2023-03-06T20:06:48.153Z,36.40
2023-03-06T20:09:50.216Z,40.10
2023-03-06T20:12:51.838Z,34.40
2023-03-06T20:15:58.061Z,38.00
2023-03-06T20:19:00.520Z,38.20
2023-03-06T20:22:05.440Z,38.93
2023-03-06T20:25:11.836Z,37.22
2023-03-06T20:28:13.456Z,41.17
2023-03-06T20:31:23.835Z,46.53
2023-03-06T20:34:25.907Z,39.07
2023-03-06T20:37:27.810Z,42.40
2023-03-06T20:40:29.401Z,46.60
2023-03-06T20:43:35.038Z,40.85
2023-03-06T20:46:36.639Z,40.27
2023-03-06T20:49:41.549Z,39.25
2023-03-06T20:52:43.127Z,39.13
2023-03-06T20:55:45.593Z,41.13
2023-03-06T20:58:51.810Z,40.20
2023-03-06T21:01:56.463Z,36.75
2023-03-06T21:05:00.126Z,40.50
2023-03-06T21:08:01.788Z,38.75
2023-03-06T21:11:03.469Z,40.90
2023-03-06T21:14:08.576Z,35.30
2023-03-06T21:17:14.099Z,36.20
2023-03-06T21:20:19.605Z,38.03
2023-03-06T21:23:21.178Z,36.77
2023-03-06T21:26:24.434Z,38.08
2023-03-06T21:29:26.040Z,42.17
2023-03-06T21:32:31.813Z,37.90
2023-03-06T21:35:41.846Z,37.63
2023-03-06T21:38:43.483Z,39.80
2023-03-06T21:41:48.282Z,36.00
2023-03-06T21:44:49.905Z,37.92
2023-03-06T21:47:54.826Z,40.07
2023-03-06T21:51:07.295Z,36.15
2023-03-06T21:54:13.978Z,34.20
2023-03-06T21:57:15.577Z,33.72
2023-03-06T22:00:21.370Z,40.67
2023-03-06T22:03:23.004Z,35.33
2023-03-06T22:06:25.910Z,37.92
2023-03-06T22:09:27.541Z,35.80
2023-03-06T22:12:29.162Z,34.17
2023-03-06T22:15:34.578Z,33.88
2023-03-06T22:18:43.702Z,25.15
2023-03-06T22:21:45.329Z,23.27
2023-03-06T22:24:48.023Z,22.20
2023-03-06T22:27:49.612Z,21.45
2023-03-06T22:30:54.941Z,18.67
2023-03-06T22:34:01.366Z,21.60
2023-03-06T22:37:02.972Z,22.63
2023-03-06T22:40:07.918Z,21.90
2023-03-06T22:43:09.517Z,21.10
2023-03-06T22:46:17.172Z,20.85
2023-03-06T22:49:22.627Z,23.67
2023-03-06T22:52:28.125Z,22.52
2023-03-06T22:55:29.780Z,24.45
2023-03-06T22:58:37.126Z,23.10
2023-03-06T23:01:42.911Z,25.67
2023-03-06T23:04:48.396Z,22.33
2023-03-06T23:07:50.014Z,21.77
2023-03-06T23:10:51.608Z,24.52
2023-03-06T23:13:53.367Z,21.50
2023-03-06T23:16:57.842Z,27.02
2023-03-06T23:20:02.499Z,21.75
2023-03-06T23:23:04.084Z,23.35
2023-03-06T23:26:09.929Z,23.73
2023-03-06T23:29:11.601Z,19.60
2023-03-06T23:32:13.189Z,20.33
2023-03-06T23:35:18.350Z,20.05
2023-03-06T23:38:23.851Z,18.35
2023-03-06T23:41:25.566Z,20.25
2023-03-06T23:44:30.364Z,18.02
2023-03-06T23:47:35.876Z,18.63
2023-03-06T23:50:44.117Z,19.25
2023-03-06T23:53:49.641Z,21.40
2023-03-06T23:56:51.239Z,17.55
2023-03-06T23:59:57.087Z,21.15
